sensor_id;sensor_type;location;lat;lon;timestamp;P1;durP1;ratioP1;P2;durP2;ratioP2
56653;SDS011;45096;52.302;4.634;2023-06-19T00:02:17;6.55;;;6.05;;
56653;SDS011;45096;52.302;4.634;2023-06-19T00:04:42;6.55;;;6.05;;
56653;SDS011;45096;52.302;4.634;2023-06-19T00:07:07;6.63;;;6.03;;
56653;SDS011;45096;52.302;4.634;2023-06-19T00:09:33;6.53;;;5.93;;
56653;SDS011;45096;52.302;4.634;2023-06-19T00:11:58;7.60;;;7.00;;
56653;SDS011;45096;52.302;4.634;2023-06-19T00:14:25;6.45;;;5.95;;
56653;SDS011;45096;52.302;4.634;2023-06-19T00:16:51;6.93;;;6.22;;
56653;SDS011;45096;52.302;4.634;2023-06-19T00:19:16;7.35;;;6.70;;
56653;SDS011;45096;52.302;4.634;2023-06-19T00:21:41;6.32;;;5.72;;
56653;SDS011;45096;52.302;4.634;2023-06-19T00:24:07;7.35;;;6.68;;
56653;SDS011;45096;52.302;4.634;2023-06-19T00:26:32;7.00;;;6.50;;
56653;SDS011;45096;52.302;4.634;2023-06-19T00:28:58;7.38;;;6.68;;
56653;SDS011;45096;52.302;4.634;2023-06-19T00:31:24;6.45;;;5.80;;
56653;SDS011;45096;52.302;4.634;2023-06-19T00:33:50;6.13;;;4.47;;
56653;SDS011;45096;52.302;4.634;2023-06-19T00:36:16;5.88;;;3.97;;
56653;SDS011;45096;52.302;4.634;2023-06-19T00:38:41;5.75;;;3.17;;
56653;SDS011;45096;52.302;4.634;2023-06-19T00:41:07;4.53;;;2.40;;
56653;SDS011;45096;52.302;4.634;2023-06-19T00:43:33;2.70;;;1.92;;
56653;SDS011;45096;52.302;4.634;2023-06-19T00:45:59;5.43;;;1.55;;
56653;SDS011;45096;52.302;4.634;2023-06-19T00:48:27;2.95;;;1.60;;
56653;SDS011;45096;52.302;4.634;2023-06-19T00:50:53;3.35;;;2.10;;
56653;SDS011;45096;52.302;4.634;2023-06-19T00:53:19;1.63;;;1.50;;
56653;SDS011;45096;52.302;4.634;2023-06-19T00:55:44;1.70;;;1.60;;
56653;SDS011;45096;52.302;4.634;2023-06-19T00:58:11;2.97;;;1.45;;
56653;SDS011;45096;52.302;4.634;2023-06-19T01:00:37;2.08;;;1.60;;
56653;SDS011;45096;52.302;4.634;2023-06-19T01:03:02;2.65;;;1.92;;
56653;SDS011;45096;52.302;4.634;2023-06-19T01:05:29;3.72;;;1.92;;
56653;SDS011;45096;52.302;4.634;2023-06-19T01:07:57;3.95;;;2.20;;
56653;SDS011;45096;52.302;4.634;2023-06-19T01:10:24;4.78;;;2.33;;
56653;SDS011;45096;52.302;4.634;2023-06-19T01:12:52;2.70;;;2.50;;
56653;SDS011;45096;52.302;4.634;2023-06-19T01:15:21;2.85;;;2.35;;
56653;SDS011;45096;52.302;4.634;2023-06-19T01:17:47;2.65;;;2.40;;
56653;SDS011;45096;52.302;4.634;2023-06-19T01:20:13;2.40;;;2.30;;
56653;SDS011;45096;52.302;4.634;2023-06-19T01:22:40;2.60;;;2.40;;
56653;SDS011;45096;52.302;4.634;2023-06-19T01:25:05;2.45;;;2.28;;
56653;SDS011;45096;52.302;4.634;2023-06-19T01:27:31;2.22;;;2.13;;
56653;SDS011;45096;52.302;4.634;2023-06-19T01:29:58;2.17;;;2.08;;
56653;SDS011;45096;52.302;4.634;2023-06-19T01:32:25;2.45;;;2.28;;
56653;SDS011;45096;52.302;4.634;2023-06-19T01:34:55;3.40;;;3.10;;
56653;SDS011;45096;52.302;4.634;2023-06-19T01:37:22;2.90;;;2.70;;
56653;SDS011;45096;52.302;4.634;2023-06-19T01:39:50;2.60;;;2.40;;
56653;SDS011;45096;52.302;4.634;2023-06-19T01:42:15;3.60;;;3.00;;
56653;SDS011;45096;52.302;4.634;2023-06-19T01:44:41;4.60;;;2.75;;
56653;SDS011;45096;52.302;4.634;2023-06-19T01:47:07;4.47;;;2.65;;
56653;SDS011;45096;52.302;4.634;2023-06-19T01:49:34;3.08;;;2.88;;
56653;SDS011;45096;52.302;4.634;2023-06-19T01:51:59;4.65;;;2.90;;
56653;SDS011;45096;52.302;4.634;2023-06-19T01:54:25;3.80;;;2.95;;
56653;SDS011;45096;52.302;4.634;2023-06-19T01:56:52;3.05;;;2.80;;
56653;SDS011;45096;52.302;4.634;2023-06-19T01:59:17;3.65;;;3.42;;
56653;SDS011;45096;52.302;4.634;2023-06-19T02:01:42;5.00;;;4.50;;
56653;SDS011;45096;52.302;4.634;2023-06-19T02:04:08;5.88;;;4.13;;
56653;SDS011;45096;52.302;4.634;2023-06-19T02:06:33;4.82;;;4.43;;
56653;SDS011;45096;52.302;4.634;2023-06-19T02:08:59;5.85;;;5.25;;
56653;SDS011;45096;52.302;4.634;2023-06-19T02:11:24;5.95;;;5.15;;
56653;SDS011;45096;52.302;4.634;2023-06-19T02:13:51;6.55;;;5.95;;
56653;SDS011;45096;52.302;4.634;2023-06-19T02:16:16;5.97;;;5.35;;
56653;SDS011;45096;52.302;4.634;2023-06-19T02:18:42;6.47;;;5.95;;
56653;SDS011;45096;52.302;4.634;2023-06-19T02:21:07;8.32;;;6.10;;
56653;SDS011;45096;52.302;4.634;2023-06-19T02:23:32;7.22;;;6.60;;
56653;SDS011;45096;52.302;4.634;2023-06-19T02:25:58;8.45;;;7.68;;
56653;SDS011;45096;52.302;4.634;2023-06-19T02:28:23;8.10;;;7.40;;
56653;SDS011;45096;52.302;4.634;2023-06-19T02:30:50;7.43;;;6.72;;
56653;SDS011;45096;52.302;4.634;2023-06-19T02:33:15;9.27;;;7.88;;
56653;SDS011;45096;52.302;4.634;2023-06-19T02:35:41;8.73;;;7.32;;
56653;SDS011;45096;52.302;4.634;2023-06-19T02:38:06;7.78;;;7.07;;
56653;SDS011;45096;52.302;4.634;2023-06-19T02:40:32;7.88;;;7.18;;
56653;SDS011;45096;52.302;4.634;2023-06-19T02:42:57;8.07;;;7.10;;
56653;SDS011;45096;52.302;4.634;2023-06-19T02:45:22;7.43;;;6.82;;
56653;SDS011;45096;52.302;4.634;2023-06-19T02:47:49;8.57;;;7.75;;
56653;SDS011;45096;52.302;4.634;2023-06-19T02:50:15;7.80;;;7.05;;
56653;SDS011;45096;52.302;4.634;2023-06-19T02:52:40;10.13;;;9.00;;
56653;SDS011;45096;52.302;4.634;2023-06-19T02:55:06;10.20;;;8.88;;
56653;SDS011;45096;52.302;4.634;2023-06-19T02:57:32;10.30;;;9.30;;
56653;SDS011;45096;52.302;4.634;2023-06-19T02:59:57;10.20;;;8.95;;
56653;SDS011;45096;52.302;4.634;2023-06-19T03:02:22;11.57;;;10.47;;
56653;SDS011;45096;52.302;4.634;2023-06-19T03:04:49;10.32;;;9.40;;
56653;SDS011;45096;52.302;4.634;2023-06-19T03:07:15;13.48;;;11.95;;
56653;SDS011;45096;52.302;4.634;2023-06-19T03:09:40;14.43;;;12.93;;
56653;SDS011;45096;52.302;4.634;2023-06-19T03:12:06;14.52;;;13.02;;
56653;SDS011;45096;52.302;4.634;2023-06-19T03:14:32;16.27;;;14.07;;
56653;SDS011;45096;52.302;4.634;2023-06-19T03:16:58;16.38;;;14.77;;
56653;SDS011;45096;52.302;4.634;2023-06-19T03:19:23;19.57;;;17.67;;
56653;SDS011;45096;52.302;4.634;2023-06-19T03:21:50;23.80;;;20.55;;
56653;SDS011;45096;52.302;4.634;2023-06-19T03:24:15;18.05;;;16.15;;
56653;SDS011;45096;52.302;4.634;2023-06-19T03:26:41;26.60;;;23.80;;
56653;SDS011;45096;52.302;4.634;2023-06-19T03:29:06;32.90;;;29.27;;
56653;SDS011;45096;52.302;4.634;2023-06-19T03:31:32;40.10;;;35.70;;
56653;SDS011;45096;52.302;4.634;2023-06-19T03:33:57;27.33;;;24.52;;
56653;SDS011;45096;52.302;4.634;2023-06-19T03:36:23;32.45;;;28.80;;
56653;SDS011;45096;52.302;4.634;2023-06-19T03:38:49;34.88;;;29.80;;
56653;SDS011;45096;52.302;4.634;2023-06-19T03:41:15;28.38;;;25.38;;
56653;SDS011;45096;52.302;4.634;2023-06-19T03:43:40;27.83;;;23.75;;
56653;SDS011;45096;52.302;4.634;2023-06-19T03:46:06;29.33;;;25.73;;
56653;SDS011;45096;52.302;4.634;2023-06-19T03:48:31;30.08;;;25.88;;
56653;SDS011;45096;52.302;4.634;2023-06-19T03:50:57;37.38;;;29.90;;
56653;SDS011;45096;52.302;4.634;2023-06-19T03:53:23;35.08;;;28.42;;
56653;SDS011;45096;52.302;4.634;2023-06-19T03:55:50;33.67;;;27.42;;
56653;SDS011;45096;52.302;4.634;2023-06-19T03:58:15;30.40;;;24.20;;
56653;SDS011;45096;52.302;4.634;2023-06-19T04:00:41;30.13;;;23.55;;
56653;SDS011;45096;52.302;4.634;2023-06-19T04:03:06;29.02;;;23.52;;
56653;SDS011;45096;52.302;4.634;2023-06-19T04:05:31;27.25;;;23.40;;
56653;SDS011;45096;52.302;4.634;2023-06-19T04:07:57;30.13;;;24.48;;
56653;SDS011;45096;52.302;4.634;2023-06-19T04:10:22;31.17;;;25.67;;
56653;SDS011;45096;52.302;4.634;2023-06-19T04:12:49;36.95;;;27.58;;
56653;SDS011;45096;52.302;4.634;2023-06-19T04:15:14;38.97;;;29.30;;
56653;SDS011;45096;52.302;4.634;2023-06-19T04:17:40;33.97;;;26.80;;
56653;SDS011;45096;52.302;4.634;2023-06-19T04:20:06;38.30;;;27.35;;
56653;SDS011;45096;52.302;4.634;2023-06-19T04:22:32;35.72;;;26.55;;
56653;SDS011;45096;52.302;4.634;2023-06-19T04:24:57;31.95;;;24.40;;
56653;SDS011;45096;52.302;4.634;2023-06-19T04:27:22;30.10;;;22.75;;
56653;SDS011;45096;52.302;4.634;2023-06-19T04:29:49;26.27;;;21.05;;
56653;SDS011;45096;52.302;4.634;2023-06-19T04:32:15;24.55;;;19.20;;
56653;SDS011;45096;52.302;4.634;2023-06-19T04:34:40;23.98;;;18.33;;
56653;SDS011;45096;52.302;4.634;2023-06-19T04:37:06;20.60;;;17.25;;
56653;SDS011;45096;52.302;4.634;2023-06-19T04:39:32;22.40;;;16.88;;
56653;SDS011;45096;52.302;4.634;2023-06-19T04:41:57;21.55;;;16.20;;
56653;SDS011;45096;52.302;4.634;2023-06-19T04:44:22;18.77;;;14.85;;
56653;SDS011;45096;52.302;4.634;2023-06-19T04:46:49;17.83;;;14.98;;
56653;SDS011;45096;52.302;4.634;2023-06-19T04:49:15;16.27;;;14.57;;
56653;SDS011;45096;52.302;4.634;2023-06-19T04:51:40;15.73;;;13.75;;
56653;SDS011;45096;52.302;4.634;2023-06-19T04:54:06;19.70;;;14.88;;
56653;SDS011;45096;52.302;4.634;2023-06-19T04:56:31;18.33;;;14.25;;
56653;SDS011;45096;52.302;4.634;2023-06-19T04:58:56;13.88;;;12.40;;
56653;SDS011;45096;52.302;4.634;2023-06-19T05:01:22;11.82;;;10.45;;
56653;SDS011;45096;52.302;4.634;2023-06-19T05:03:49;11.63;;;10.35;;
56653;SDS011;45096;52.302;4.634;2023-06-19T05:06:14;12.85;;;10.57;;
56653;SDS011;45096;52.302;4.634;2023-06-19T05:08:40;10.63;;;9.15;;
56653;SDS011;45096;52.302;4.634;2023-06-19T05:11:05;9.82;;;8.75;;
56653;SDS011;45096;52.302;4.634;2023-06-19T05:13:31;9.85;;;8.55;;
56653;SDS011;45096;52.302;4.634;2023-06-19T05:15:56;10.32;;;9.20;;
56653;SDS011;45096;52.302;4.634;2023-06-19T05:18:21;10.60;;;9.15;;
56653;SDS011;45096;52.302;4.634;2023-06-19T05:20:48;9.88;;;8.73;;
56653;SDS011;45096;52.302;4.634;2023-06-19T05:23:14;10.50;;;9.35;;
56653;SDS011;45096;52.302;4.634;2023-06-19T05:25:39;12.73;;;9.30;;
56653;SDS011;45096;52.302;4.634;2023-06-19T05:28:04;10.98;;;8.98;;
56653;SDS011;45096;52.302;4.634;2023-06-19T05:30:30;15.43;;;9.65;;
56653;SDS011;45096;52.302;4.634;2023-06-19T05:32:55;10.70;;;8.80;;
56653;SDS011;45096;52.302;4.634;2023-06-19T05:35:21;14.60;;;9.90;;
56653;SDS011;45096;52.302;4.634;2023-06-19T05:37:47;11.23;;;9.85;;
56653;SDS011;45096;52.302;4.634;2023-06-19T05:40:13;14.13;;;10.45;;
56653;SDS011;45096;52.302;4.634;2023-06-19T05:42:39;11.63;;;9.88;;
56653;SDS011;45096;52.302;4.634;2023-06-19T05:45:05;15.73;;;10.25;;
56653;SDS011;45096;52.302;4.634;2023-06-19T05:47:31;16.00;;;9.93;;
56653;SDS011;45096;52.302;4.634;2023-06-19T05:49:57;12.57;;;10.95;;
56653;SDS011;45096;52.302;4.634;2023-06-19T05:52:22;13.25;;;11.35;;
56653;SDS011;45096;52.302;4.634;2023-06-19T05:54:49;13.93;;;12.15;;
56653;SDS011;45096;52.302;4.634;2023-06-19T05:57:15;15.90;;;11.57;;
56653;SDS011;45096;52.302;4.634;2023-06-19T05:59:40;13.90;;;11.52;;
56653;SDS011;45096;52.302;4.634;2023-06-19T06:02:05;15.60;;;12.38;;
56653;SDS011;45096;52.302;4.634;2023-06-19T06:04:31;17.10;;;12.38;;
56653;SDS011;45096;52.302;4.634;2023-06-19T06:06:57;19.30;;;13.50;;
56653;SDS011;45096;52.302;4.634;2023-06-19T06:09:22;14.15;;;10.95;;
56653;SDS011;45096;52.302;4.634;2023-06-19T06:11:49;15.10;;;13.27;;
56653;SDS011;45096;52.302;4.634;2023-06-19T06:14:14;19.45;;;13.10;;
56653;SDS011;45096;52.302;4.634;2023-06-19T06:16:40;21.60;;;15.77;;
56653;SDS011;45096;52.302;4.634;2023-06-19T06:19:05;19.83;;;15.63;;
56653;SDS011;45096;52.302;4.634;2023-06-19T06:21:31;17.23;;;15.40;;
56653;SDS011;45096;52.302;4.634;2023-06-19T06:23:56;16.25;;;14.30;;
56653;SDS011;45096;52.302;4.634;2023-06-19T06:26:22;18.80;;;15.00;;
56653;SDS011;45096;52.302;4.634;2023-06-19T06:28:48;17.23;;;14.55;;
56653;SDS011;45096;52.302;4.634;2023-06-19T06:31:14;17.35;;;14.70;;
56653;SDS011;45096;52.302;4.634;2023-06-19T06:33:39;21.58;;;15.38;;
56653;SDS011;45096;52.302;4.634;2023-06-19T06:36:05;17.92;;;15.13;;
56653;SDS011;45096;52.302;4.634;2023-06-19T06:38:31;16.65;;;14.25;;
56653;SDS011;45096;52.302;4.634;2023-06-19T06:40:56;16.40;;;14.00;;
56653;SDS011;45096;52.302;4.634;2023-06-19T06:43:21;17.85;;;14.90;;
56653;SDS011;45096;52.302;4.634;2023-06-19T06:45:48;17.92;;;14.55;;
56653;SDS011;45096;52.302;4.634;2023-06-19T06:48:14;16.60;;;13.48;;
56653;SDS011;45096;52.302;4.634;2023-06-19T06:50:39;15.20;;;13.25;;
56653;SDS011;45096;52.302;4.634;2023-06-19T06:53:05;15.68;;;13.48;;
56653;SDS011;45096;52.302;4.634;2023-06-19T06:55:31;13.70;;;12.30;;
56653;SDS011;45096;52.302;4.634;2023-06-19T06:57:56;15.43;;;12.55;;
56653;SDS011;45096;52.302;4.634;2023-06-19T07:00:22;17.15;;;12.57;;
56653;SDS011;45096;52.302;4.634;2023-06-19T07:02:48;13.68;;;12.27;;
56653;SDS011;45096;52.302;4.634;2023-06-19T07:05:14;14.10;;;12.57;;
56653;SDS011;45096;52.302;4.634;2023-06-19T07:07:39;13.05;;;11.63;;
56653;SDS011;45096;52.302;4.634;2023-06-19T07:10:05;15.35;;;11.43;;
56653;SDS011;45096;52.302;4.634;2023-06-19T07:12:31;15.75;;;11.30;;
56653;SDS011;45096;52.302;4.634;2023-06-19T07:14:56;13.45;;;12.15;;
56653;SDS011;45096;52.302;4.634;2023-06-19T07:17:22;14.30;;;11.18;;
56653;SDS011;45096;52.302;4.634;2023-06-19T07:19:49;14.85;;;10.43;;
56653;SDS011;45096;52.302;4.634;2023-06-19T07:22:14;16.40;;;11.48;;
56653;SDS011;45096;52.302;4.634;2023-06-19T07:24:40;13.73;;;9.80;;
56653;SDS011;45096;52.302;4.634;2023-06-19T07:27:05;14.48;;;10.65;;
56653;SDS011;45096;52.302;4.634;2023-06-19T07:29:31;10.70;;;9.60;;
56653;SDS011;45096;52.302;4.634;2023-06-19T07:31:56;12.32;;;9.55;;
56653;SDS011;45096;52.302;4.634;2023-06-19T07:34:22;11.93;;;8.70;;
56653;SDS011;45096;52.302;4.634;2023-06-19T07:36:49;12.25;;;9.48;;
56653;SDS011;45096;52.302;4.634;2023-06-19T07:39:14;15.82;;;10.60;;
56653;SDS011;45096;52.302;4.634;2023-06-19T07:41:39;12.40;;;10.00;;
56653;SDS011;45096;52.302;4.634;2023-06-19T07:44:05;14.43;;;10.52;;
56653;SDS011;45096;52.302;4.634;2023-06-19T07:46:30;11.60;;;10.15;;
56653;SDS011;45096;52.302;4.634;2023-06-19T07:48:56;13.98;;;10.93;;
56653;SDS011;45096;52.302;4.634;2023-06-19T07:51:21;11.65;;;9.10;;
56653;SDS011;45096;52.302;4.634;2023-06-19T07:53:48;12.32;;;9.35;;
56653;SDS011;45096;52.302;4.634;2023-06-19T07:56:13;14.73;;;10.55;;
56653;SDS011;45096;52.302;4.634;2023-06-19T07:58:39;12.63;;;9.10;;
56653;SDS011;45096;52.302;4.634;2023-06-19T08:01:04;10.25;;;9.23;;
56653;SDS011;45096;52.302;4.634;2023-06-19T08:03:30;10.38;;;9.25;;
56653;SDS011;45096;52.302;4.634;2023-06-19T08:05:55;12.90;;;9.23;;
56653;SDS011;45096;52.302;4.634;2023-06-19T08:08:21;9.95;;;8.00;;
56653;SDS011;45096;52.302;4.634;2023-06-19T08:10:48;13.77;;;9.10;;
56653;SDS011;45096;52.302;4.634;2023-06-19T08:13:13;10.60;;;8.02;;
56653;SDS011;45096;52.302;4.634;2023-06-19T08:15:39;9.82;;;8.80;;
56653;SDS011;45096;52.302;4.634;2023-06-19T08:18:04;15.02;;;10.63;;
56653;SDS011;45096;52.302;4.634;2023-06-19T08:20:29;12.80;;;9.13;;
56653;SDS011;45096;52.302;4.634;2023-06-19T08:22:55;9.77;;;8.27;;
56653;SDS011;45096;52.302;4.634;2023-06-19T08:25:20;13.75;;;10.15;;
56653;SDS011;45096;52.302;4.634;2023-06-19T08:27:47;13.63;;;9.65;;
56653;SDS011;45096;52.302;4.634;2023-06-19T08:30:13;11.80;;;10.07;;
56653;SDS011;45096;52.302;4.634;2023-06-19T08:32:38;13.75;;;9.50;;
56653;SDS011;45096;52.302;4.634;2023-06-19T08:35:04;10.20;;;9.13;;
56653;SDS011;45096;52.302;4.634;2023-06-19T08:37:29;12.25;;;9.63;;
56653;SDS011;45096;52.302;4.634;2023-06-19T08:39:55;12.93;;;9.73;;
56653;SDS011;45096;52.302;4.634;2023-06-19T08:42:20;11.10;;;9.75;;
56653;SDS011;45096;52.302;4.634;2023-06-19T08:44:47;12.13;;;10.15;;
56653;SDS011;45096;52.302;4.634;2023-06-19T08:47:13;14.20;;;11.02;;
56653;SDS011;45096;52.302;4.634;2023-06-19T08:49:38;15.50;;;10.55;;
56653;SDS011;45096;52.302;4.634;2023-06-19T08:52:04;12.18;;;9.88;;
56653;SDS011;45096;52.302;4.634;2023-06-19T08:54:30;14.43;;;11.55;;
56653;SDS011;45096;52.302;4.634;2023-06-19T08:56:59;14.30;;;11.00;;
56653;SDS011;45096;52.302;4.634;2023-06-19T08:59:25;15.73;;;10.75;;
56653;SDS011;45096;52.302;4.634;2023-06-19T09:01:52;13.63;;;10.75;;
56653;SDS011;45096;52.302;4.634;2023-06-19T09:04:19;15.25;;;11.25;;
56653;SDS011;45096;52.302;4.634;2023-06-19T09:06:49;11.27;;;9.68;;
56653;SDS011;45096;52.302;4.634;2023-06-19T09:09:15;14.35;;;10.35;;
56653;SDS011;45096;52.302;4.634;2023-06-19T09:11:40;12.05;;;10.10;;
56653;SDS011;45096;52.302;4.634;2023-06-19T09:14:06;12.35;;;10.15;;
56653;SDS011;45096;52.302;4.634;2023-06-19T09:16:36;12.35;;;9.43;;
56653;SDS011;45096;52.302;4.634;2023-06-19T09:19:03;11.27;;;10.13;;
56653;SDS011;45096;52.302;4.634;2023-06-19T09:21:28;11.52;;;8.50;;
56653;SDS011;45096;52.302;4.634;2023-06-19T09:23:54;10.35;;;9.15;;
56653;SDS011;45096;52.302;4.634;2023-06-19T09:26:19;9.27;;;8.38;;
56653;SDS011;45096;52.302;4.634;2023-06-19T09:28:45;13.75;;;9.57;;
56653;SDS011;45096;52.302;4.634;2023-06-19T09:31:10;12.07;;;8.70;;
56653;SDS011;45096;52.302;4.634;2023-06-19T09:33:36;14.80;;;9.77;;
56653;SDS011;45096;52.302;4.634;2023-06-19T09:36:04;8.93;;;8.10;;
56653;SDS011;45096;52.302;4.634;2023-06-19T09:38:31;9.98;;;8.93;;
56653;SDS011;45096;52.302;4.634;2023-06-19T09:40:58;13.27;;;10.27;;
56653;SDS011;45096;52.302;4.634;2023-06-19T09:43:26;11.07;;;9.85;;
56653;SDS011;45096;52.302;4.634;2023-06-19T09:45:55;12.70;;;10.27;;
56653;SDS011;45096;52.302;4.634;2023-06-19T09:48:22;9.43;;;8.45;;
56653;SDS011;45096;52.302;4.634;2023-06-19T09:50:52;9.38;;;8.40;;
56653;SDS011;45096;52.302;4.634;2023-06-19T09:53:21;11.18;;;8.90;;
56653;SDS011;45096;52.302;4.634;2023-06-19T09:55:48;11.02;;;8.95;;
56653;SDS011;45096;52.302;4.634;2023-06-19T09:58:14;10.85;;;7.78;;
56653;SDS011;45096;52.302;4.634;2023-06-19T10:00:40;9.82;;;8.40;;
56653;SDS011;45096;52.302;4.634;2023-06-19T10:03:10;11.75;;;9.07;;
56653;SDS011;45096;52.302;4.634;2023-06-19T10:05:37;11.40;;;8.63;;
56653;SDS011;45096;52.302;4.634;2023-06-19T10:08:02;7.63;;;6.93;;
56653;SDS011;45096;52.302;4.634;2023-06-19T10:10:29;8.75;;;7.95;;
56653;SDS011;45096;52.302;4.634;2023-06-19T10:12:55;10.07;;;8.20;;
56653;SDS011;45096;52.302;4.634;2023-06-19T10:15:23;10.77;;;8.68;;
56653;SDS011;45096;52.302;4.634;2023-06-19T10:17:50;11.13;;;7.90;;
56653;SDS011;45096;52.302;4.634;2023-06-19T10:20:23;12.52;;;9.13;;
56653;SDS011;45096;52.302;4.634;2023-06-19T10:22:50;6.97;;;6.32;;
56653;SDS011;45096;52.302;4.634;2023-06-19T10:25:19;9.75;;;7.78;;
56653;SDS011;45096;52.302;4.634;2023-06-19T10:27:47;7.70;;;6.97;;
56653;SDS011;45096;52.302;4.634;2023-06-19T10:30:16;7.70;;;6.93;;
56653;SDS011;45096;52.302;4.634;2023-06-19T10:32:42;11.52;;;8.07;;
56653;SDS011;45096;52.302;4.634;2023-06-19T10:35:10;8.18;;;7.40;;
56653;SDS011;45096;52.302;4.634;2023-06-19T10:37:37;8.13;;;7.20;;
56653;SDS011;45096;52.302;4.634;2023-06-19T10:40:03;10.50;;;6.90;;
56653;SDS011;45096;52.302;4.634;2023-06-19T10:42:29;12.68;;;6.88;;
56653;SDS011;45096;52.302;4.634;2023-06-19T10:45:01;9.23;;;7.30;;
56653;SDS011;45096;52.302;4.634;2023-06-19T10:47:27;9.23;;;8.30;;
56653;SDS011;45096;52.302;4.634;2023-06-19T10:49:53;10.05;;;8.48;;
56653;SDS011;45096;52.302;4.634;2023-06-19T10:52:19;10.48;;;7.35;;
56653;SDS011;45096;52.302;4.634;2023-06-19T10:54:45;8.82;;;6.97;;
56653;SDS011;45096;52.302;4.634;2023-06-19T10:57:11;10.25;;;6.85;;
56653;SDS011;45096;52.302;4.634;2023-06-19T10:59:36;8.68;;;7.13;;
56653;SDS011;45096;52.302;4.634;2023-06-19T11:02:03;9.60;;;7.18;;
56653;SDS011;45096;52.302;4.634;2023-06-19T11:04:28;9.10;;;7.97;;
56653;SDS011;45096;52.302;4.634;2023-06-19T11:06:54;7.93;;;6.95;;
56653;SDS011;45096;52.302;4.634;2023-06-19T11:09:19;7.35;;;6.65;;
56653;SDS011;45096;52.302;4.634;2023-06-19T11:11:45;8.52;;;7.07;;
56653;SDS011;45096;52.302;4.634;2023-06-19T11:14:12;8.98;;;6.57;;
56653;SDS011;45096;52.302;4.634;2023-06-19T11:16:39;10.40;;;6.88;;
56653;SDS011;45096;52.302;4.634;2023-06-19T11:19:07;8.75;;;6.72;;
56653;SDS011;45096;52.302;4.634;2023-06-19T11:21:33;10.23;;;6.72;;
56653;SDS011;45096;52.302;4.634;2023-06-19T11:23:59;11.02;;;7.28;;
56653;SDS011;45096;52.302;4.634;2023-06-19T11:26:25;7.00;;;5.32;;
56653;SDS011;45096;52.302;4.634;2023-06-19T11:28:51;7.85;;;5.43;;
56653;SDS011;45096;52.302;4.634;2023-06-19T11:31:16;7.78;;;5.82;;
56653;SDS011;45096;52.302;4.634;2023-06-19T11:33:41;6.55;;;5.88;;
56653;SDS011;45096;52.302;4.634;2023-06-19T11:36:08;6.25;;;5.63;;
56653;SDS011;45096;52.302;4.634;2023-06-19T11:38:35;5.68;;;5.03;;
56653;SDS011;45096;52.302;4.634;2023-06-19T11:41:01;6.80;;;5.57;;
56653;SDS011;45096;52.302;4.634;2023-06-19T11:43:28;5.55;;;4.72;;
56653;SDS011;45096;52.302;4.634;2023-06-19T11:45:55;5.80;;;5.32;;
56653;SDS011;45096;52.302;4.634;2023-06-19T11:48:27;5.50;;;5.00;;
56653;SDS011;45096;52.302;4.634;2023-06-19T11:50:53;6.28;;;4.72;;
56653;SDS011;45096;52.302;4.634;2023-06-19T11:53:20;6.72;;;4.55;;
56653;SDS011;45096;52.302;4.634;2023-06-19T11:55:46;6.00;;;4.60;;
56653;SDS011;45096;52.302;4.634;2023-06-19T11:58:11;4.35;;;3.95;;
56653;SDS011;45096;52.302;4.634;2023-06-19T12:00:37;9.23;;;4.55;;
56653;SDS011;45096;52.302;4.634;2023-06-19T12:03:02;5.53;;;4.93;;
56653;SDS011;45096;52.302;4.634;2023-06-19T12:05:28;7.22;;;4.63;;
56653;SDS011;45096;52.302;4.634;2023-06-19T12:07:53;5.10;;;4.40;;
56653;SDS011;45096;52.302;4.634;2023-06-19T12:10:20;5.35;;;4.80;;
56653;SDS011;45096;52.302;4.634;2023-06-19T12:12:45;4.88;;;4.47;;
56653;SDS011;45096;52.302;4.634;2023-06-19T12:15:11;5.07;;;4.53;;
56653;SDS011;45096;52.302;4.634;2023-06-19T12:17:36;4.75;;;4.25;;
56653;SDS011;45096;52.302;4.634;2023-06-19T12:20:02;6.20;;;5.32;;
56653;SDS011;45096;52.302;4.634;2023-06-19T12:22:28;5.93;;;5.00;;
56653;SDS011;45096;52.302;4.634;2023-06-19T12:24:54;5.25;;;4.75;;
56653;SDS011;45096;52.302;4.634;2023-06-19T12:27:20;4.78;;;4.38;;
56653;SDS011;45096;52.302;4.634;2023-06-19T12:29:46;6.63;;;4.57;;
56653;SDS011;45096;52.302;4.634;2023-06-19T12:32:11;5.30;;;4.78;;
56653;SDS011;45096;52.302;4.634;2023-06-19T12:34:37;4.88;;;4.57;;
56653;SDS011;45096;52.302;4.634;2023-06-19T12:37:02;4.85;;;4.45;;
56653;SDS011;45096;52.302;4.634;2023-06-19T12:39:28;5.10;;;4.65;;
56653;SDS011;45096;52.302;4.634;2023-06-19T12:41:53;6.70;;;4.65;;
56653;SDS011;45096;52.302;4.634;2023-06-19T12:44:21;4.95;;;4.45;;
56653;SDS011;45096;52.302;4.634;2023-06-19T12:46:47;4.93;;;4.13;;
56653;SDS011;45096;52.302;4.634;2023-06-19T12:49:12;5.55;;;5.05;;
56653;SDS011;45096;52.302;4.634;2023-06-19T12:51:38;5.35;;;4.63;;
56653;SDS011;45096;52.302;4.634;2023-06-19T12:54:03;5.25;;;4.75;;
56653;SDS011;45096;52.302;4.634;2023-06-19T12:56:29;6.05;;;4.85;;
56653;SDS011;45096;52.302;4.634;2023-06-19T12:58:54;5.90;;;5.32;;
56653;SDS011;45096;52.302;4.634;2023-06-19T13:01:21;7.20;;;5.28;;
56653;SDS011;45096;52.302;4.634;2023-06-19T13:03:47;7.53;;;5.80;;
56653;SDS011;45096;52.302;4.634;2023-06-19T13:06:12;6.28;;;5.68;;
56653;SDS011;45096;52.302;4.634;2023-06-19T13:08:37;5.80;;;5.25;;
56653;SDS011;45096;52.302;4.634;2023-06-19T13:11:03;6.40;;;4.93;;
56653;SDS011;45096;52.302;4.634;2023-06-19T13:13:28;5.35;;;4.78;;
56653;SDS011;45096;52.302;4.634;2023-06-19T13:15:54;5.45;;;4.93;;
56653;SDS011;45096;52.302;4.634;2023-06-19T13:18:20;7.18;;;4.65;;
56653;SDS011;45096;52.302;4.634;2023-06-19T13:20:46;8.90;;;5.60;;
56653;SDS011;45096;52.302;4.634;2023-06-19T13:23:11;5.10;;;4.60;;
56653;SDS011;45096;52.302;4.634;2023-06-19T13:25:37;6.05;;;5.38;;
56653;SDS011;45096;52.302;4.634;2023-06-19T13:28:02;5.47;;;4.97;;
56653;SDS011;45096;52.302;4.634;2023-06-19T13:30:28;7.15;;;5.15;;
56653;SDS011;45096;52.302;4.634;2023-06-19T13:32:53;5.75;;;4.97;;
56653;SDS011;45096;52.302;4.634;2023-06-19T13:35:20;5.00;;;4.50;;
56653;SDS011;45096;52.302;4.634;2023-06-19T13:37:46;9.02;;;4.95;;
56653;SDS011;45096;52.302;4.634;2023-06-19T13:40:11;6.15;;;4.60;;
56653;SDS011;45096;52.302;4.634;2023-06-19T13:42:36;6.80;;;5.03;;
56653;SDS011;45096;52.302;4.634;2023-06-19T13:45:02;4.75;;;4.25;;
56653;SDS011;45096;52.302;4.634;2023-06-19T13:47:28;7.35;;;5.03;;
56653;SDS011;45096;52.302;4.634;2023-06-19T13:49:53;6.75;;;5.05;;
56653;SDS011;45096;52.302;4.634;2023-06-19T13:52:20;7.15;;;4.93;;
56653;SDS011;45096;52.302;4.634;2023-06-19T13:54:46;5.07;;;4.57;;
56653;SDS011;45096;52.302;4.634;2023-06-19T13:57:11;5.05;;;4.18;;
56653;SDS011;45096;52.302;4.634;2023-06-19T13:59:37;5.50;;;4.50;;
56653;SDS011;45096;52.302;4.634;2023-06-19T14:02:02;5.35;;;4.65;;
56653;SDS011;45096;52.302;4.634;2023-06-19T14:04:28;6.15;;;4.97;;
56653;SDS011;45096;52.302;4.634;2023-06-19T14:06:53;4.78;;;4.20;;
56653;SDS011;45096;52.302;4.634;2023-06-19T14:09:20;6.72;;;5.43;;
56653;SDS011;45096;52.302;4.634;2023-06-19T14:11:45;6.35;;;4.50;;
56653;SDS011;45096;52.302;4.634;2023-06-19T14:14:11;7.15;;;4.88;;
56653;SDS011;45096;52.302;4.634;2023-06-19T14:16:36;6.63;;;4.75;;
56653;SDS011;45096;52.302;4.634;2023-06-19T14:19:02;8.35;;;4.97;;
56653;SDS011;45096;52.302;4.634;2023-06-19T14:21:27;6.10;;;5.22;;
56653;SDS011;45096;52.302;4.634;2023-06-19T14:23:52;6.53;;;4.90;;
56653;SDS011;45096;52.302;4.634;2023-06-19T14:26:19;5.32;;;4.47;;
56653;SDS011;45096;52.302;4.634;2023-06-19T14:28:45;6.53;;;4.40;;